Time;durP1;ratioP1;P1;durP2;ratioP2;P2;SDS_P1;SDS_P2;PMS_P1;PMS_P2;Temp;Humidity;BMP_temperature;BMP_pressure;BME280_temperature;BME280_humidity;BME280_pressure;Samples;Min_cycle;Max_cycle;Signal;HPM_P1;HPM_P2
2023/02/12 00:02:30;;;;;;;;;;;;;;;;;;;;;
2023/02/12 00:05:32;;;;;;;;;;;;;;;;;;;;;
2023/02/12 00:14:24;;;;;;;2.25;1.65;;;6.70;99.90;;;;;;4917727;29;20052;-81
2023/02/12 00:16:50;;;;;;;3.75;2.17;;;6.70;99.90;;;;;;4950743;29;20102;-82
2023/02/12 00:19:18;;;;;;;3.72;2.38;;;6.70;99.90;;;;;;4991313;28;20041;-80
2023/02/12 00:21:44;;;;;;;2.90;1.88;;;6.70;99.90;;;;;;5032470;28;20025;-81
2023/02/12 00:24:12;;;;;;;2.78;1.95;;;6.70;99.90;;;;;;5019282;28;20399;-81
2023/02/12 00:26:42;;;;;;;3.13;2.00;;;6.70;99.90;;;;;;5035653;28;20432;-81
2023/02/12 00:29:10;;;;;;;3.65;2.38;;;6.70;99.90;;;;;;5042675;28;20025;-81
2023/02/12 00:31:36;;;;;;;3.33;2.42;;;6.70;99.90;;;;;;5042458;28;20482;-81
2023/02/12 00:34:02;;;;;;;3.35;2.53;;;6.70;99.90;;;;;;5042975;28;20056;-80
2023/02/12 00:36:34;;;;;;;3.63;2.35;;;6.60;99.90;;;;;;5042223;28;20033;-83
2023/02/12 00:39:00;;;;;;;3.58;2.35;;;6.70;99.90;;;;;;5042803;28;20036;-80
2023/02/12 00:41:36;;;;;;;3.72;2.25;;;6.70;99.90;;;;;;5055849;28;20026;-83
2023/02/12 00:44:02;;;;;;;3.55;2.28;;;6.70;99.90;;;;;;5034701;28;20037;-82
2023/02/12 00:46:28;;;;;;;3.42;2.42;;;6.70;99.90;;;;;;5059782;28;20021;-83
2023/02/12 00:48:53;;;;;;;3.25;2.20;;;6.70;99.90;;;;;;5030353;28;20136;-80
2023/02/12 00:51:19;;;;;;;3.47;2.58;;;6.70;99.90;;;;;;5040148;28;20398;-81
2023/02/12 00:53:45;;;;;;;3.78;2.60;;;6.70;99.90;;;;;;5045566;28;20107;-81
2023/02/12 00:56:11;;;;;;;3.70;2.33;;;6.60;99.90;;;;;;5022634;28;20030;-81
2023/02/12 00:58:36;;;;;;;3.00;2.20;;;6.70;99.90;;;;;;5051134;28;20024;-83
2023/02/12 01:01:02;;;;;;;3.58;2.40;;;6.70;99.90;;;;;;5036235;28;20452;-81
2023/02/12 01:03:28;;;;;;;3.40;2.40;;;6.70;99.90;;;;;;5040044;28;20386;-80
2023/02/12 01:05:54;;;;;;;3.28;2.70;;;6.70;99.90;;;;;;5027912;28;20024;-82
2023/02/12 01:09:19;;;;;;;;;;;;;;;;;;;;;
2023/02/12 01:12:20;;;;;;;;;;;;;;;;;;;;;
2023/02/12 01:18:41;;;;;;;2.67;2.13;;;6.70;99.90;;;;;;5059873;28;20040;-84
2023/02/12 01:45:12;;;;;;;3.03;2.35;;;6.50;99.90;;;;;;5477924;22;20063;-80
2023/02/12 01:47:50;;;;;;;3.50;2.55;;;6.50;99.90;;;;;;5069656;28;20033;-84
2023/02/12 01:59:01;;;;;;;3.78;2.50;;;6.50;99.90;;;;;;5165904;22;20054;-81
2023/02/12 02:04:56;;;;;;;4.38;2.53;;;6.40;99.90;;;;;;5039895;28;20117;-78
2023/02/12 02:51:43;;;;;;;5.07;3.55;;;6.10;99.90;;;;;;5058120;28;20036;-80
2023/02/12 02:54:17;;;;;;;4.57;3.05;;;6.10;99.90;;;;;;5050419;28;20075;-80
2023/02/12 02:56:46;;;;;;;5.35;3.58;;;6.10;99.90;;;;;;5057945;28;20504;-81
2023/02/12 02:59:22;;;;;;;5.03;3.70;;;6.10;99.90;;;;;;5049137;28;20042;-81
2023/02/12 03:01:56;;;;;;;5.45;3.70;;;6.10;99.90;;;;;;5035118;28;20083;-80
2023/02/12 03:04:31;;;;;;;7.40;4.53;;;6.10;99.90;;;;;;5039677;28;20179;-81
2023/02/12 03:07:09;;;;;;;5.45;3.90;;;6.10;99.90;;;;;;5043651;28;20037;-81
2023/02/12 03:09:46;;;;;;;5.43;4.10;;;6.10;99.90;;;;;;5012840;28;20029;-81
2023/02/12 03:12:22;;;;;;;5.63;4.03;;;6.10;99.90;;;;;;5039939;28;20021;-81
2023/02/12 03:14:56;;;;;;;6.00;3.63;;;6.10;99.90;;;;;;5039315;28;20032;-81
2023/02/12 03:17:34;;;;;;;6.28;4.25;;;6.00;99.90;;;;;;5039536;28;20033;-81
2023/02/12 03:20:21;;;;;;;6.13;4.28;;;6.10;99.90;;;;;;5044155;28;20029;-81
2023/02/12 03:23:17;;;;;;;8.55;4.68;;;6.00;99.90;;;;;;5038139;28;20055;-82
2023/02/12 04:47:17;;;;;;;6.53;4.75;;;5.70;99.90;;;;;;5975318;23;20045;-82
2023/02/12 04:53:40;;;;;;;6.00;4.93;;;5.70;99.90;;;;;;4822629;29;20034;-84
2023/02/12 04:56:42;;;;;;;7.53;4.28;;;5.70;99.90;;;;;;4881448;29;20117;-83
2023/02/12 04:59:08;;;;;;;7.13;4.90;;;5.70;99.90;;;;;;4953584;29;20413;-81
2023/02/12 05:01:36;;;;;;;6.18;4.85;;;5.80;99.90;;;;;;4961725;29;20098;-81
2023/02/12 05:04:02;;;;;;;8.25;5.18;;;5.80;99.90;;;;;;4961757;29;20062;-81
2023/02/12 05:06:29;;;;;;;7.68;5.47;;;5.80;99.90;;;;;;4961055;29;20405;-82
2023/02/12 05:08:55;;;;;;;8.50;5.25;;;5.80;99.90;;;;;;4960402;29;20408;-81
2023/02/12 05:11:21;;;;;;;8.38;5.63;;;5.80;99.90;;;;;;4960602;29;20392;-81
2023/02/12 05:55:20;;;;;;;7.78;5.40;;;5.70;99.90;;;;;;5199205;23;20055;-81
2023/02/12 05:57:45;;;;;;;9.30;5.72;;;5.60;99.90;;;;;;4960825;29;20043;-81
2023/02/12 06:00:14;;;;;;;8.48;5.30;;;5.70;99.90;;;;;;4959729;29;20023;-82
2023/02/12 06:06:15;;;;;;;6.80;4.72;;;5.60;99.90;;;;;;4949445;29;20547;-83
2023/02/12 06:08:53;;;;;;;7.10;4.70;;;5.60;99.90;;;;;;4946593;29;20031;-82
2023/02/12 06:11:50;;;;;;;8.30;5.05;;;5.60;99.90;;;;;;4959665;29;20023;-83
2023/02/12 06:32:27;;;;;;;;;;;;;;;;;;;;;
2023/02/12 06:41:47;;;;;;;6.00;4.20;;;5.50;99.90;;;;;;4915459;29;20099;-82
2023/02/12 06:44:15;;;;;;;7.07;4.13;;;5.40;99.90;;;;;;4958707;29;20019;-83
2023/02/12 06:46:41;;;;;;;6.72;4.13;;;5.40;99.90;;;;;;4958936;29;20038;-82
2023/02/12 06:49:07;;;;;;;7.10;4.75;;;5.40;99.90;;;;;;4958604;29;20055;-81
2023/02/12 06:51:32;;;;;;;7.57;4.63;;;5.30;99.90;;;;;;4958666;29;20032;-82
2023/02/12 07:15:56;;;;;;;6.97;4.65;;;5.20;99.90;;;;;;5055046;23;20468;-81
2023/02/12 07:18:22;;;;;;;7.35;4.65;;;5.20;99.90;;;;;;4959441;29;20085;-82
2023/02/12 07:20:48;;;;;;;7.05;4.57;;;5.20;99.90;;;;;;4959496;29;20031;-82
2023/02/12 07:23:13;;;;;;;6.88;4.80;;;5.20;99.90;;;;;;4959424;29;20420;-81
2023/02/12 07:25:39;;;;;;;7.22;4.93;;;5.20;99.90;;;;;;4950841;29;20117;-81
2023/02/12 07:28:05;;;;;;;7.03;4.85;;;5.20;99.90;;;;;;4958371;29;20034;-81
2023/02/12 07:30:30;;;;;;;8.48;4.88;;;5.20;99.90;;;;;;4959186;29;20503;-81
2023/02/12 07:32:56;;;;;;;6.90;4.50;;;5.10;99.90;;;;;;4957961;29;20047;-81
2023/02/12 07:35:21;;;;;;;8.45;5.05;;;5.20;99.90;;;;;;4958376;28;20059;-81
2023/02/12 07:37:47;;;;;;;8.32;4.85;;;5.20;99.90;;;;;;4946518;29;20031;-81
2023/02/12 07:40:13;;;;;;;6.45;5.05;;;5.20;99.90;;;;;;4957123;28;20035;-81
2023/02/12 07:42:39;;;;;;;6.55;4.25;;;5.30;99.90;;;;;;4956776;28;20047;-84
2023/02/12 07:45:15;;;;;;;7.18;5.15;;;5.30;99.90;;;;;;4957451;29;20487;-84
2023/02/12 07:55:35;;;;;;;6.28;4.32;;;5.30;99.90;;;;;;4912526;29;20035;-84
2023/02/12 07:58:01;;;;;;;5.97;3.92;;;5.30;99.90;;;;;;4921565;28;20036;-82
2023/02/12 08:00:27;;;;;;;5.22;3.85;;;5.30;99.90;;;;;;4960841;28;20389;-83
2023/02/12 08:02:53;;;;;;;6.28;3.70;;;5.30;99.90;;;;;;4978432;28;20074;-82
2023/02/12 08:05:19;;;;;;;6.47;3.97;;;5.40;99.90;;;;;;4960702;28;20037;-80
2023/02/12 08:07:45;;;;;;;6.47;4.10;;;5.50;99.90;;;;;;4970759;28;20067;-82
2023/02/12 08:10:10;;;;;;;4.78;3.65;;;5.50;99.90;;;;;;4972669;28;20018;-82
2023/02/12 08:16:23;;;;;;;5.13;3.30;;;5.60;99.90;;;;;;4968660;28;20058;-87
2023/02/12 08:18:58;;;;;;;5.47;3.60;;;5.50;99.90;;;;;;4961177;28;20078;-86
2023/02/12 08:21:27;;;;;;;4.68;3.10;;;5.50;99.90;;;;;;4960692;28;20046;-83
2023/02/12 08:24:33;;;;;;;4.65;3.42;;;5.60;99.90;;;;;;4978259;28;20387;-86
2023/02/12 08:26:59;;;;;;;4.65;3.10;;;5.60;99.90;;;;;;4977902;28;20041;-82
2023/02/12 08:39:48;;;;;;;4.30;3.13;;;5.60;99.90;;;;;;4918843;29;20458;-84
2023/02/12 08:42:13;;;;;;;4.07;3.03;;;5.60;99.90;;;;;;4902548;29;20073;-82
2023/02/12 08:44:40;;;;;;;5.38;3.22;;;5.60;99.90;;;;;;4950950;28;20404;-82
2023/02/12 08:50:23;;;;;;;4.35;2.95;;;5.70;99.90;;;;;;4967602;28;20126;-79
2023/02/12 08:52:51;;;;;;;5.55;3.80;;;5.80;99.90;;;;;;4981229;28;20054;-86
2023/02/12 08:55:17;;;;;;;4.97;3.72;;;5.90;99.90;;;;;;4981210;28;20031;-81
2023/02/12 08:57:43;;;;;;;5.75;3.90;;;5.90;99.90;;;;;;4981272;28;20119;-80
2023/02/12 09:00:09;;;;;;;5.85;4.13;;;5.90;99.90;;;;;;4979479;28;20019;-81
2023/02/12 09:02:35;;;;;;;6.45;4.30;;;5.90;99.90;;;;;;4961754;28;20034;-82
2023/02/12 09:05:00;;;;;;;6.60;4.63;;;5.90;99.90;;;;;;4981407;28;20033;-83
2023/02/12 09:07:26;;;;;;;6.85;4.40;;;5.90;99.90;;;;;;4962213;28;20614;-80
2023/02/12 09:09:52;;;;;;;7.40;4.65;;;6.00;99.90;;;;;;4977854;28;20026;-80
2023/02/12 09:12:49;;;;;;;6.75;4.55;;;6.00;99.90;;;;;;4962993;28;20109;-84
2023/02/12 09:15:38;;;;;;;5.93;4.03;;;6.00;99.90;;;;;;4958567;28;20060;-82
2023/02/12 09:21:53;;;;;;;5.13;3.65;;;6.00;99.90;;;;;;4865401;29;20041;-71
2023/02/12 09:24:19;;;;;;;5.07;3.83;;;6.00;99.90;;;;;;4890128;28;20066;-74
2023/02/12 09:26:45;;;;;;;5.05;3.90;;;6.10;99.90;;;;;;4980518;28;20109;-76
2023/02/12 09:29:10;;;;;;;5.40;3.78;;;6.10;99.90;;;;;;4963249;28;20023;-73
2023/02/12 09:31:36;;;;;;;5.82;3.92;;;6.20;99.90;;;;;;4963205;28;20090;-73
2023/02/12 09:34:04;;;;;;;7.05;3.95;;;6.20;99.90;;;;;;4980626;28;20031;-74
2023/02/12 09:36:31;;;;;;;5.55;3.97;;;6.30;99.90;;;;;;4972435;28;20046;-71
2023/02/12 09:38:58;;;;;;;5.80;3.75;;;6.30;99.90;;;;;;4957391;28;20054;-76
2023/02/12 09:41:45;;;;;;;6.47;4.28;;;6.30;99.90;;;;;;4969855;28;20101;-72
2023/02/12 09:44:39;;;;;;;7.18;4.32;;;6.30;99.90;;;;;;4950085;28;20027;-73
2023/02/12 09:47:16;;;;;;;5.43;3.42;;;6.40;99.90;;;;;;4968452;28;20054;-74
2023/02/12 09:49:44;;;;;;;6.00;4.13;;;6.40;99.90;;;;;;4969138;28;20047;-72
2023/02/12 09:52:17;;;;;;;5.38;3.95;;;6.40;99.90;;;;;;4970086;28;20392;-73
2023/02/12 09:54:43;;;;;;;6.40;4.03;;;6.50;99.90;;;;;;4971207;28;20015;-70
2023/02/12 09:57:20;;;;;;;5.65;4.13;;;6.50;99.90;;;;;;4971622;28;20039;-70
2023/02/12 09:59:55;;;;;;;5.82;3.70;;;6.50;99.90;;;;;;4969674;28;20034;-71
2023/02/12 10:02:22;;;;;;;4.80;3.80;;;6.60;99.90;;;;;;4957658;28;20031;-72
2023/02/12 10:04:48;;;;;;;5.75;3.88;;;6.70;99.90;;;;;;4952368;28;20027;-68
2023/02/12 10:07:14;;;;;;;6.53;4.15;;;6.70;99.90;;;;;;4969931;28;20014;-68
2023/02/12 10:10:08;;;;;;;6.35;4.32;;;6.70;99.90;;;;;;4971017;28;20026;-68
2023/02/12 10:12:47;;;;;;;5.13;3.80;;;6.70;99.90;;;;;;4970423;28;20042;-67
2023/02/12 10:15:24;;;;;;;5.60;4.15;;;6.70;99.90;;;;;;4977959;28;20126;-67
2023/02/12 10:18:22;;;;;;;7.32;4.47;;;6.80;99.90;;;;;;4979855;28;20038;-68
2023/02/12 10:21:01;;;;;;;6.32;4.05;;;6.90;99.90;;;;;;4979991;28;20105;-69
2023/02/12 10:23:33;;;;;;;6.75;4.82;;;7.00;99.90;;;;;;4973231;28;20035;-67
2023/02/12 10:26:05;;;;;;;5.97;3.83;;;7.00;99.90;;;;;;4976631;28;20026;-68
2023/02/12 10:28:37;;;;;;;6.72;4.32;;;7.10;99.90;;;;;;4979639;28;20051;-67
2023/02/12 10:31:14;;;;;;;6.43;3.75;;;7.10;99.90;;;;;;4952538;28;20055;-67
2023/02/12 10:33:47;;;;;;;6.05;3.45;;;7.10;99.90;;;;;;4970735;28;20078;-71
2023/02/12 10:36:38;;;;;;;7.35;4.57;;;7.20;99.90;;;;;;4968827;28;20027;-68
2023/02/12 10:39:18;;;;;;;5.60;3.83;;;7.20;99.90;;;;;;4969040;28;20027;-69
2023/02/12 10:42:05;;;;;;;6.15;4.07;;;7.30;99.90;;;;;;4970215;28;20019;-68
2023/02/12 10:44:31;;;;;;;5.97;4.20;;;7.30;99.90;;;;;;4957042;28;20039;-69
2023/02/12 10:46:56;;;;;;;6.38;3.90;;;7.40;99.90;;;;;;4971429;28;20023;-68
2023/02/12 10:49:22;;;;;;;5.65;3.97;;;7.40;99.90;;;;;;4970409;28;20023;-70
2023/02/12 10:52:11;;;;;;;7.90;4.28;;;7.40;99.90;;;;;;4950669;28;20027;-69
2023/02/12 10:54:43;;;;;;;5.30;4.03;;;7.50;99.90;;;;;;4968514;28;20039;-69
2023/02/12 10:57:29;;;;;;;6.57;4.22;;;7.60;99.90;;;;;;4950486;28;20065;-72
2023/02/12 11:00:13;;;;;;;5.70;3.90;;;7.60;99.90;;;;;;4970817;28;20042;-72
2023/02/12 11:02:57;;;;;;;5.60;4.18;;;7.60;99.90;;;;;;4970419;28;20046;-71
2023/02/12 11:05:25;;;;;;;5.78;4.22;;;7.60;99.90;;;;;;4970640;28;20161;-69
2023/02/12 11:07:51;;;;;;;5.13;3.72;;;7.70;99.90;;;;;;4969101;28;20019;-70
2023/02/12 11:10:31;;;;;;;7.60;4.85;;;7.70;99.90;;;;;;4969047;28;20089;-70
2023/02/12 11:12:59;;;;;;;6.53;4.40;;;7.70;99.90;;;;;;4969366;28;20074;-70
2023/02/12 11:15:30;;;;;;;6.45;4.47;;;7.80;99.90;;;;;;4967599;28;20298;-69
2023/02/12 11:18:04;;;;;;;6.18;4.38;;;7.80;99.90;;;;;;4972922;28;20098;-68
2023/02/12 11:20:38;;;;;;;6.60;4.32;;;7.80;99.90;;;;;;4949478;28;20050;-68
2023/02/12 11:23:20;;;;;;;6.05;3.95;;;7.80;99.90;;;;;;4969293;28;20039;-69
2023/02/12 11:26:03;;;;;;;5.63;3.67;;;7.90;99.90;;;;;;4968614;28;20074;-68
2023/02/12 11:28:30;;;;;;;7.28;4.50;;;7.90;99.90;;;;;;4971359;28;20447;-69
2023/02/12 11:31:02;;;;;;;5.45;4.28;;;7.90;99.90;;;;;;4969660;28;20042;-69
2023/02/12 11:33:28;;;;;;;5.30;3.90;;;8.00;99.90;;;;;;4969385;28;20030;-69
2023/02/12 11:35:57;;;;;;;6.45;4.50;;;8.00;99.90;;;;;;4967200;28;20487;-69
2023/02/12 11:38:33;;;;;;;7.25;5.22;;;8.10;99.90;;;;;;4953422;28;20097;-69
2023/02/12 11:41:05;;;;;;;6.25;4.53;;;8.10;99.90;;;;;;4946558;28;20038;-70
2023/02/12 11:43:35;;;;;;;7.80;4.45;;;8.10;99.90;;;;;;4950942;28;20031;-70
2023/02/12 11:46:02;;;;;;;5.30;4.03;;;8.10;99.90;;;;;;4968146;28;20431;-71
2023/02/12 11:48:30;;;;;;;7.07;4.78;;;8.00;99.90;;;;;;4969692;28;20042;-72
2023/02/12 11:50:59;;;;;;;6.50;4.07;;;7.90;99.90;;;;;;4952957;28;20027;-69
2023/02/12 11:53:39;;;;;;;5.90;4.10;;;8.00;99.90;;;;;;4952956;28;20396;-70
2023/02/12 11:56:08;;;;;;;8.20;4.32;;;8.10;99.90;;;;;;4967370;28;20092;-70
2023/02/12 11:58:34;;;;;;;7.03;4.68;;;8.20;99.90;;;;;;4968364;28;20030;-71
2023/02/12 12:01:11;;;;;;;6.65;4.63;;;8.20;99.90;;;;;;4959825;28;20038;-73
2023/02/12 12:03:48;;;;;;;7.13;4.53;;;8.20;99.90;;;;;;4971261;28;20031;-73
2023/02/12 12:06:46;;;;;;;6.68;4.57;;;8.20;99.90;;;;;;4956334;28;20035;-72
2023/02/12 12:09:16;;;;;;;6.18;4.40;;;8.20;99.90;;;;;;4971079;28;21072;-73
2023/02/12 12:12:03;;;;;;;6.38;4.15;;;8.30;99.90;;;;;;4969451;28;20044;-70
2023/02/12 12:19:51;;;;;;;6.35;4.00;;;8.30;99.90;;;;;;4970570;28;20442;-74
2023/02/12 12:20:22;;;;;;;6.72;4.32;;;8.30;99.90;;;;;;4970483;28;20030;-72
2023/02/12 12:23:00;;;;;;;;;;;8.20;99.90;;;;;;4974149;28;20026;-73
2023/02/12 12:25:51;;;;;;;5.10;3.20;;;8.10;99.90;;;;;;4980935;28;19921;-74
2023/02/12 12:28:46;;;;;;;6.20;4.15;;;8.00;99.90;;;;;;4964090;28;20031;-74
2023/02/12 12:31:28;;;;;;;5.75;3.75;;;8.00;99.90;;;;;;4973084;28;20110;-74
2023/02/12 12:34:11;;;;;;;7.07;4.05;;;8.00;99.90;;;;;;4977194;28;20032;-74
2023/02/12 12:36:52;;;;;;;6.43;3.50;;;8.00;99.90;;;;;;4977012;28;20031;-73
2023/02/12 12:39:48;;;;;;;5.25;3.72;;;8.10;99.90;;;;;;4961926;28;20813;-72
2023/02/12 12:42:35;;;;;;;5.72;3.38;;;8.10;99.90;;;;;;4954822;28;20492;-73
2023/02/12 12:45:22;;;;;;;7.90;4.15;;;8.20;99.90;;;;;;4963542;28;20530;-72
2023/02/12 12:47:57;;;;;;;5.97;4.03;;;8.20;99.90;;;;;;4963052;28;20023;-71
2023/02/12 12:50:47;;;;;;;5.82;4.03;;;8.30;99.90;;;;;;4980584;28;20106;-73
2023/02/12 12:53:19;;;;;;;5.97;3.83;;;8.30;99.90;;;;;;4973106;28;20019;-74
2023/02/12 12:55:52;;;;;;;6.88;4.30;;;8.30;99.90;;;;;;4974951;28;20030;-75
2023/02/12 12:58:33;;;;;;;7.45;4.40;;;8.30;99.90;;;;;;4980781;28;20033;-73
2023/02/12 13:01:27;;;;;;;7.25;4.35;;;8.30;99.90;;;;;;4963400;28;20031;-74
2023/02/12 13:04:20;;;;;;;6.25;3.88;;;8.30;99.90;;;;;;4976163;28;20026;-72
2023/02/12 13:06:58;;;;;;;6.25;3.85;;;8.40;99.90;;;;;;4976165;28;20038;-72
2023/02/12 13:09:34;;;;;;;6.70;4.28;;;8.30;99.90;;;;;;4980490;28;20098;-72
2023/02/12 13:12:09;;;;;;;5.82;3.70;;;8.40;99.90;;;;;;4967673;28;20027;-73
2023/02/12 13:14:37;;;;;;;4.43;3.35;;;8.40;99.90;;;;;;4957719;28;20037;-72
2023/02/12 13:17:27;;;;;;;5.65;4.03;;;8.40;99.90;;;;;;4955839;28;20409;-73
2023/02/12 13:20:12;;;;;;;6.32;4.28;;;8.40;99.90;;;;;;4971669;28;20027;-73
2023/02/12 13:22:50;;;;;;;6.40;4.13;;;8.40;99.90;;;;;;4975158;28;20011;-74
2023/02/12 13:25:19;;;;;;;5.57;4.05;;;8.50;99.90;;;;;;4952095;28;20094;-74
2023/02/12 13:27:46;;;;;;;6.75;4.13;;;8.60;99.90;;;;;;4953891;28;20019;-74
2023/02/12 13:30:20;;;;;;;5.85;4.20;;;8.60;99.90;;;;;;4969431;28;20026;-74
2023/02/12 13:32:51;;;;;;;;;;;8.50;99.90;;;;;;4970681;28;20051;-74
2023/02/12 13:35:22;;;;;;;4.80;3.08;;;8.60;99.90;;;;;;4971110;28;20363;-73
2023/02/12 13:37:52;;;;;;;6.15;3.83;;;8.50;99.90;;;;;;4971871;28;20023;-73
2023/02/12 13:40:21;;;;;;;4.80;3.22;;;8.60;99.90;;;;;;4973053;28;20027;-73
2023/02/12 13:42:57;;;;;;;4.50;3.58;;;8.60;99.90;;;;;;4972484;28;20015;-73
2023/02/12 13:45:47;;;;;;;5.07;3.38;;;8.60;99.90;;;;;;4974720;28;20026;-73
2023/02/12 13:48:23;;;;;;;5.50;3.83;;;8.60;99.90;;;;;;4962688;28;20043;-72
2023/02/12 13:50:54;;;;;;;6.50;4.25;;;8.60;99.90;;;;;;4980453;28;20395;-72
2023/02/12 13:53:35;;;;;;;6.47;4.57;;;8.70;99.90;;;;;;4980349;28;20031;-74
2023/02/12 13:56:17;;;;;;;5.93;3.90;;;8.70;99.90;;;;;;4980230;28;20069;-72
2023/02/12 13:58:51;;;;;;;5.28;3.95;;;8.70;99.90;;;;;;4980079;28;20045;-72
2023/02/12 14:01:35;;;;;;;4.70;3.45;;;8.80;99.90;;;;;;4979891;28;20018;-73
2023/02/12 14:04:23;;;;;;;5.93;3.63;;;8.80;99.90;;;;;;4962336;28;20130;-71
2023/02/12 14:06:56;;;;;;;7.57;5.30;;;8.80;99.90;;;;;;4974286;28;20432;-70
2023/02/12 14:09:31;;;;;;;6.90;4.17;;;8.80;99.90;;;;;;4972726;28;20034;-70
2023/02/12 14:11:59;;;;;;;6.30;4.07;;;8.90;99.90;;;;;;4973580;28;20029;-72
2023/02/12 14:14:30;;;;;;;6.75;4.22;;;9.00;99.90;;;;;;4968133;28;20038;-72
2023/02/12 14:16:56;;;;;;;6.18;3.65;;;9.00;99.90;;;;;;4979477;28;20031;-71
2023/02/12 14:19:49;;;;;;;5.90;3.70;;;9.00;99.90;;;;;;4979595;28;20034;-71
2023/02/12 14:22:27;;;;;;;5.70;3.95;;;9.00;99.90;;;;;;4976293;28;20452;-72
2023/02/12 14:25:12;;;;;;;5.20;3.67;;;9.00;99.90;;;;;;4975923;28;20039;-71
2023/02/12 14:27:48;;;;;;;6.80;3.80;;;9.10;99.90;;;;;;4953320;29;20047;-72
2023/02/12 14:30:28;;;;;;;5.80;3.60;;;9.10;99.90;;;;;;4958989;28;20030;-71
2023/02/12 14:32:57;;;;;;;5.53;3.47;;;9.20;99.90;;;;;;4961184;28;20143;-71
2023/02/12 14:35:25;;;;;;;5.28;3.70;;;9.20;99.90;;;;;;4977576;28;20082;-70
2023/02/12 14:37:52;;;;;;;5.97;4.05;;;9.20;99.90;;;;;;4978784;28;20118;-70
2023/02/12 14:40:33;;;;;;;4.68;3.30;;;9.20;99.90;;;;;;4977283;28;20031;-70
2023/02/12 14:43:28;;;;;;;4.57;3.00;;;9.30;99.90;;;;;;4978596;28;20081;-70
2023/02/12 14:45:57;;;;;;;4.10;2.80;;;9.30;99.90;;;;;;4940121;28;20112;-71
2023/02/12 14:48:58;;;;;;;4.28;2.78;;;9.30;99.90;;;;;;4971392;28;20018;-71
2023/02/12 14:51:54;;;;;;;4.30;3.00;;;9.30;99.90;;;;;;4975151;28;20385;-72
2023/02/12 14:54:29;;;;;;;4.85;3.20;;;9.30;99.90;;;;;;4977076;28;20494;-68
2023/02/12 14:56:57;;;;;;;4.57;3.13;;;9.30;99.90;;;;;;4977097;28;20106;-74
2023/02/12 14:59:25;;;;;;;4.63;3.08;;;9.30;99.90;;;;;;4977947;28;20031;-69
2023/02/12 15:01:52;;;;;;;4.72;3.33;;;9.30;99.90;;;;;;4961389;28;20026;-70
2023/02/12 15:04:24;;;;;;;4.80;2.97;;;9.30;99.90;;;;;;4978386;28;20015;-71
2023/02/12 15:07:11;;;;;;;4.25;2.85;;;9.30;99.90;;;;;;4971418;28;20019;-68
2023/02/12 15:09:55;;;;;;;4.22;3.15;;;9.40;99.90;;;;;;4966494;28;20034;-69
2023/02/12 15:12:30;;;;;;;3.92;2.95;;;9.40;99.90;;;;;;4966142;28;20508;-68
2023/02/12 15:15:11;;;;;;;4.68;2.97;;;9.50;99.90;;;;;;4978137;28;20503;-68
2023/02/12 15:17:40;;;;;;;4.05;2.33;;;9.50;99.90;;;;;;4977928;28;20078;-67
2023/02/12 15:20:20;;;;;;;3.92;3.00;;;9.50;99.90;;;;;;4973494;28;20398;-77
2023/02/12 15:22:46;;;;;;;4.63;3.03;;;9.60;99.90;;;;;;4960534;28;20035;-67
2023/02/12 15:25:32;;;;;;;3.70;2.65;;;9.60;99.90;;;;;;4960456;28;20081;-67
2023/02/12 15:28:22;;;;;;;4.00;3.08;;;9.60;99.90;;;;;;4961037;28;20030;-67
2023/02/12 15:30:49;;;;;;;4.03;2.60;;;9.60;99.90;;;;;;4978270;28;20027;-67
2023/02/12 15:33:28;;;;;;;3.42;2.55;;;9.60;99.90;;;;;;4978436;28;20023;-67
2023/02/12 15:35:54;;;;;;;3.75;2.65;;;9.70;99.90;;;;;;4973482;28;20027;-67
2023/02/12 15:38:29;;;;;;;4.07;2.72;;;9.70;99.90;;;;;;4977464;28;20034;-67
2023/02/12 15:40:57;;;;;;;4.45;2.67;;;9.70;99.90;;;;;;4961053;28;20407;-67
2023/02/12 15:43:29;;;;;;;3.17;2.47;;;9.70;99.90;;;;;;4961294;28;20031;-67
2023/02/12 15:45:54;;;;;;;3.35;2.50;;;9.70;99.90;;;;;;4977992;28;20074;-67
2023/02/12 15:48:27;;;;;;;3.55;2.83;;;9.70;99.90;;;;;;4972181;28;20015;-67
2023/02/12 15:51:05;;;;;;;5.15;2.97;;;9.70;99.90;;;;;;4978249;28;20034;-67
2023/02/12 15:53:32;;;;;;;3.33;2.70;;;9.80;99.90;;;;;;4978456;28;20019;-68
2023/02/12 15:55:59;;;;;;;4.82;3.33;;;9.80;99.90;;;;;;4960570;28;20030;-67
2023/02/12 15:58:26;;;;;;;3.70;2.78;;;9.80;99.90;;;;;;4978180;28;20031;-68
2023/02/12 16:00:53;;;;;;;4.03;2.88;;;9.90;99.90;;;;;;4977828;28;20042;-67
2023/02/12 16:03:21;;;;;;;3.90;2.75;;;9.90;99.90;;;;;;4978231;28;20037;-67
2023/02/12 16:05:49;;;;;;;4.82;2.97;;;9.90;99.90;;;;;;4977856;28;20031;-68
2023/02/12 16:08:17;;;;;;;4.40;3.00;;;10.00;99.90;;;;;;4954683;28;20090;-67
2023/02/12 16:10:46;;;;;;;3.67;2.92;;;10.00;99.90;;;;;;4973737;28;20019;-67
2023/02/12 16:13:18;;;;;;;4.05;3.15;;;10.00;99.90;;;;;;4970789;28;20027;-68
2023/02/12 16:15:44;;;;;;;3.88;2.78;;;10.00;99.90;;;;;;4977539;28;20051;-67
2023/02/12 16:18:28;;;;;;;3.55;2.85;;;10.00;99.90;;;;;;4978078;28;20085;-67
2023/02/12 16:21:26;;;;;;;4.03;2.67;;;10.10;99.90;;;;;;4978009;28;20117;-67
2023/02/12 16:23:52;;;;;;;3.10;2.50;;;10.10;99.90;;;;;;4925667;28;20069;-67
2023/02/12 16:26:24;;;;;;;4.00;2.90;;;10.00;99.90;;;;;;4964655;28;20031;-67
2023/02/12 16:28:53;;;;;;;3.45;2.78;;;10.10;99.90;;;;;;4973127;28;20095;-68
2023/02/12 16:31:22;;;;;;;3.30;2.20;;;10.10;99.90;;;;;;4970376;28;20527;-67
2023/02/12 16:33:54;;;;;;;3.97;3.00;;;10.10;99.90;;;;;;4965818;28;20542;-67
2023/02/12 16:36:23;;;;;;;4.30;3.03;;;10.10;99.90;;;;;;4971164;28;20023;-67
2023/02/12 16:39:04;;;;;;;4.40;2.80;;;10.10;99.90;;;;;;4977870;28;20027;-68
2023/02/12 16:41:32;;;;;;;3.80;2.72;;;10.20;99.90;;;;;;4977673;28;20031;-69
2023/02/12 16:44:00;;;;;;;4.30;3.05;;;10.20;99.90;;;;;;4977597;28;20027;-69
2023/02/12 16:46:28;;;;;;;3.90;2.70;;;10.30;99.90;;;;;;4977273;28;20034;-70
2023/02/12 16:48:56;;;;;;;4.57;3.28;;;10.30;99.90;;;;;;4977860;28;20019;-68
2023/02/12 16:51:28;;;;;;;3.58;2.58;;;10.30;99.90;;;;;;4977348;28;20033;-68
2023/02/12 16:53:56;;;;;;;4.45;2.97;;;10.30;99.90;;;;;;4966518;28;20554;-66
2023/02/12 16:56:24;;;;;;;6.15;3.20;;;10.30;99.90;;;;;;4967590;28;20055;-66
2023/02/12 16:58:55;;;;;;;5.28;3.35;;;10.30;99.90;;;;;;4967003;28;20027;-66
2023/02/12 17:01:33;;;;;;;4.07;2.92;;;10.30;99.90;;;;;;4968009;28;20027;-66
2023/02/12 17:04:00;;;;;;;4.30;2.97;;;10.20;99.90;;;;;;4952551;28;20105;-66
2023/02/12 17:06:29;;;;;;;4.32;3.08;;;10.10;99.90;;;;;;4974611;28;20027;-70
2023/02/12 17:08:55;;;;;;;3.95;2.92;;;9.90;99.90;;;;;;4957349;28;20046;-68
2023/02/12 17:11:22;;;;;;;4.43;3.00;;;9.80;99.90;;;;;;4965527;28;20031;-69
2023/02/12 17:13:49;;;;;;;5.00;2.92;;;9.70;99.90;;;;;;4968078;28;20012;-68
2023/02/12 17:16:16;;;;;;;4.60;3.15;;;9.60;99.90;;;;;;4971970;28;20066;-72
2023/02/12 17:18:42;;;;;;;3.85;2.88;;;9.50;99.90;;;;;;4952219;28;20033;-68
2023/02/12 17:21:20;;;;;;;4.07;3.10;;;9.40;99.90;;;;;;4970165;28;20046;-67
2023/02/12 17:23:45;;;;;;;4.97;3.55;;;9.30;99.90;;;;;;4973584;28;20031;-69
2023/02/12 17:26:11;;;;;;;4.85;3.20;;;9.20;99.90;;;;;;4971197;28;20035;-71
2023/02/12 17:28:37;;;;;;;4.55;2.92;;;9.10;99.90;;;;;;4952301;28;20019;-68
2023/02/12 17:31:05;;;;;;;4.40;3.03;;;9.10;99.90;;;;;;4969719;28;20023;-68
2023/02/12 17:33:31;;;;;;;4.93;2.90;;;9.00;99.90;;;;;;4951047;28;20019;-67
2023/02/12 17:35:58;;;;;;;4.32;3.25;;;8.90;99.90;;;;;;4967394;28;20549;-72
2023/02/12 17:38:23;;;;;;;4.07;3.22;;;8.90;99.90;;;;;;4953524;28;20069;-72
2023/02/12 17:40:49;;;;;;;3.63;2.88;;;8.80;99.90;;;;;;4967546;28;20055;-70
2023/02/12 17:43:15;;;;;;;4.20;3.05;;;8.80;99.90;;;;;;4975415;28;20149;-71
2023/02/12 17:45:41;;;;;;;4.72;3.17;;;8.80;99.90;;;;;;4953699;28;20026;-68
2023/02/12 17:48:09;;;;;;;5.68;3.83;;;8.70;99.90;;;;;;4970124;28;20086;-68
2023/02/12 17:50:34;;;;;;;4.65;3.20;;;8.70;99.90;;;;;;4968507;28;20029;-69
2023/02/12 17:53:01;;;;;;;6.32;4.03;;;8.60;99.90;;;;;;4969937;28;20098;-79
2023/02/12 17:56:10;;;;;;;5.38;3.50;;;8.60;99.90;;;;;;4950674;28;20035;-79
2023/02/12 17:58:43;;;;;;;5.32;3.40;;;8.60;99.90;;;;;;4952111;28;20043;-82
2023/02/12 18:01:55;;;;;;;4.68;3.22;;;8.50;99.90;;;;;;4969181;28;20975;-82
2023/02/12 18:04:21;;;;;;;4.53;3.47;;;8.40;99.90;;;;;;4949180;28;20067;-85
2023/02/12 18:06:47;;;;;;;5.07;3.42;;;8.30;99.90;;;;;;4969816;28;20027;-78
2023/02/12 18:09:13;;;;;;;7.13;3.75;;;8.30;99.90;;;;;;4953402;28;20023;-79
2023/02/12 18:11:41;;;;;;;4.78;3.35;;;8.10;99.90;;;;;;4969102;28;20377;-79
2023/02/12 18:14:06;;;;;;;4.68;3.38;;;8.10;99.90;;;;;;4950305;28;20034;-78
2023/02/12 18:16:34;;;;;;;4.70;3.25;;;8.10;99.90;;;;;;4968031;28;20435;-80
2023/02/12 18:19:03;;;;;;;5.20;3.33;;;8.10;99.90;;;;;;4951765;28;20030;-78
2023/02/12 18:21:29;;;;;;;5.03;3.30;;;8.00;99.90;;;;;;4952640;28;20062;-78
2023/02/12 18:23:54;;;;;;;5.15;3.58;;;8.00;99.90;;;;;;4967029;28;20019;-79
2023/02/12 18:26:21;;;;;;;5.13;3.55;;;7.90;99.90;;;;;;4970481;28;20034;-79
2023/02/12 18:28:47;;;;;;;4.35;3.30;;;7.90;99.90;;;;;;4957387;28;20768;-79
2023/02/12 18:31:13;;;;;;;5.63;3.97;;;7.90;99.90;;;;;;4970122;28;20038;-78
2023/02/12 18:33:39;;;;;;;6.63;4.10;;;7.90;99.90;;;;;;4974215;28;20106;-78
2023/02/12 18:36:11;;;;;;;5.70;3.55;;;7.90;99.90;;;;;;4954712;28;20053;-80